Latest Weather Observations for Ocean Reef

IDW60801

Issued at 1:03 am WST Wednesday 18 October 2017 (issued every 30 minutes, with the page automatically refreshed every 10 minutes)

About weather observations | Map of weather stations | Latest weather observations for WA | Other Formats
Station Details ID: 009214 Name: OCEAN REEF Lat: -31.76 Lon: 115.73 Height: 10.0 m
Data from the previous 72 hours. | See also: Recent months at Ocean Reef
Date/Time
WST
Temp
°C
App
Temp
°C
Dew
Point
°C
Rel
Hum
%
Delta-T
°C
Wind Press
QNH
hPa
Press
MSL
hPa
Rain since
9am
mm
Dir  Spd
km/h
Gust
km/h
Spd
kts
Gust
kts
18/01:00am - - - - - SW 33 41 18 22 - - -
18/12:30am - - - - - WSW 35 46 19 25 - - -
18/12:00am - - - - - SW 39 52 21 28 - - -
 
Date/Time
WST
Temp
°C
App
Temp
°C
Dew
Point
°C
Rel
Hum
%
Delta-T
°C
Wind Press
QNH
hPa
Press
MSL
hPa
Rain since
9am
mm
Dir  Spd
km/h
Gust
km/h
Spd
kts
Gust
kts
17/11:30pm - - - - - SW 41 54 22 29 - - -
17/11:00pm - - - - - SW 43 54 23 29 - - -
17/10:30pm - - - - - WSW 43 52 23 28 - - -
17/10:00pm - - - - - WSW 43 54 23 29 - - -
17/09:30pm - - - - - WSW 48 57 26 31 - - -
17/09:20pm - - - - - W 35 57 19 31 - - -
17/09:00pm - - - - - W 37 46 20 25 - - -
17/08:45pm - - - - - WNW 46 59 25 32 - - -
17/08:30pm - - - - - NW 46 54 25 29 - - -
17/08:00pm - - - - - NW 48 57 26 31 - - -
17/07:30pm - - - - - NW 52 65 28 35 - - -
17/07:21pm - - - - - NW 43 65 23 35 - - -
17/07:00pm - - - - - NW 43 52 23 28 - - -
17/06:30pm - - - - - NW 37 56 20 30 - - -
17/06:01pm - - - - - NW 43 70 23 38 - - -
17/06:00pm - - - - - NW 43 52 23 28 - - -
17/05:30pm - - - - - NW 44 54 24 29 - - -
17/05:00pm - - - - - NW 44 52 24 28 - - -
17/04:30pm - - - - - NW 43 50 23 27 - - -
17/04:00pm - - - - - NW 39 46 21 25 - - -
17/03:30pm - - - - - NW 43 50 23 27 - - -
17/03:00pm - - - - - NW 37 41 20 22 - - -
17/02:30pm - - - - - NNW 43 50 23 27 - - -
17/02:25pm - - - - - NW 43 50 23 27 - - -
17/02:00pm - - - - - WNW 39 50 21 27 - - -
17/01:40pm - - - - - NW 39 52 21 28 - - -
17/01:30pm - - - - - NW 37 43 20 23 - - -
17/01:21pm - - - - - NW 48 63 26 34 - - -
17/01:00pm - - - - - WNW 37 46 20 25 - - -
17/12:54pm - - - - - NW 35 41 19 22 - - -
17/12:37pm - - - - - NW 37 46 20 25 - - -
17/12:30pm - - - - - WNW 39 48 21 26 - - -
17/12:00pm - - - - - WNW 35 41 19 22 - - -
17/11:30am - - - - - WNW 37 44 20 24 - - -
17/11:00am - - - - - WNW 37 44 20 24 - - -
17/10:30am - - - - - WNW 37 46 20 25 - - -
17/10:00am - - - - - WNW 37 41 20 22 - - -
17/09:30am - - - - - WNW 33 41 18 22 - - -
17/09:00am - - - - - W 32 37 17 20 - - -
17/08:30am - - - - - W 33 37 18 20 - - -
17/08:00am - - - - - W 37 46 20 25 - - -
17/07:30am - - - - - WNW 32 39 17 21 - - -
17/07:00am - - - - - W 37 54 20 29 - - -
17/06:30am - - - - - W 39 44 21 24 - - -
17/06:00am - - - - - W 33 43 18 23 - - -
17/05:30am - - - - - WNW 39 50 21 27 - - -
17/05:00am - - - - - W 33 46 18 25 - - -
17/04:48am - - - - - WNW 30 52 16 28 - - -
17/04:30am - - - - - W 41 52 22 28 - - -
17/04:00am - - - - - W 39 46 21 25 - - -
17/03:30am - - - - - W 35 46 19 25 - - -
17/03:00am - - - - - W 35 43 19 23 - - -
17/02:30am - - - - - W 41 48 22 26 - - -
17/02:00am - - - - - W 43 52 23 28 - - -
17/01:41am - - - - - W 35 54 19 29 - - -
17/01:30am - - - - - W 39 48 21 26 - - -
17/01:00am - - - - - W 33 39 18 21 - - -
17/12:40am - - - - - W 43 61 23 33 - - -
17/12:30am - - - - - W 44 57 24 31 - - -
17/12:00am - - - - - WNW 39 48 21 26 - - -
 
Date/Time
WST
Temp
°C
App
Temp
°C
Dew
Point
°C
Rel
Hum
%
Delta-T
°C
Wind Press
QNH
hPa
Press
MSL
hPa
Rain since
9am
mm
Dir  Spd
km/h
Gust
km/h
Spd
kts
Gust
kts
16/11:30pm - - - - - WNW 50 70 27 38 - - -
16/11:00pm - - - - - WNW 50 69 27 37 - - -
16/10:54pm - - - - - WNW 50 69 27 37 - - -
16/10:30pm - - - - - WNW 54 65 29 35 - - -
16/10:20pm - - - - - WNW 54 72 29 39 - - -
16/10:00pm - - - - - NW 56 70 30 38 - - -
16/09:30pm - - - - - WNW 59 74 32 40 - - -
16/09:00pm - - - - - NW 65 85 35 46 - - -
16/08:54pm - - - - - NW 63 82 34 44 - - -
16/08:30pm - - - - - NW 69 83 37 45 - - -
16/08:14pm - - - - - NW 65 83 35 45 - - -
16/08:00pm - - - - - NW 69 83 37 45 - - -
16/07:44pm - - - - - NNW 67 85 36 46 - - -
16/07:30pm - - - - - NW 67 83 36 45 - - -
16/07:12pm - - - - - NW 65 83 35 45 - - -
16/07:00pm - - - - - NW 72 85 39 46 - - -
16/06:34pm - - - - - NW 70 89 38 48 - - -
16/06:30pm - - - - - NW 72 89 39 48 - - -
16/06:26pm - - - - - NW 69 87 37 47 - - -
16/06:00pm - - - - - NW 67 80 36 43 - - -
16/05:30pm - - - - - NW 69 95 37 51 - - -
16/05:00pm - - - - - NW 67 87 36 47 - - -
16/04:30pm - - - - - NW 63 89 34 48 - - -
16/04:00pm - - - - - NNW 69 89 37 48 - - -
16/03:56pm - - - - - NNW 74 93 40 50 - - -
16/03:48pm - - - - - NW 67 93 36 50 - - -
16/03:46pm - - - - - NW 63 82 34 44 - - -
16/03:30pm - - - - - NW 63 74 34 40 - - -
16/03:00pm - - - - - NW 61 72 33 39 - - -
16/02:43pm - - - - - NW 56 74 30 40 - - -
16/02:30pm - - - - - NW 54 61 29 33 - - -
16/02:00pm - - - - - NW 57 72 31 39 - - -
16/01:30pm - - - - - NW 56 69 30 37 - - -
16/01:00pm - - - - - NW 57 72 31 39 - - -
16/12:30pm - - - - - NW 59 72 32 39 - - -
16/12:00pm - - - - - NW 59 74 32 40 - - -
16/11:30am - - - - - NW 61 74 33 40 - - -
16/11:00am - - - - - NW 67 87 36 47 - - -
16/10:45am - - - - - NW 59 78 32 42 - - -
16/10:30am - - - - - NW 61 76 33 41 - - -
16/10:19am - - - - - NW 61 80 33 43 - - -
16/10:00am - - - - - NW 63 78 34 42 - - -
16/09:30am - - - - - NW 56 74 30 40 - - -
16/09:29am - - - - - NW 56 74 30 40 - - -
16/09:06am - - - - - NW 63 82 34 44 - - -
16/09:00am - - - - - WNW 59 82 32 44 - - -
16/08:58am - - - - - WNW 57 82 31 44 - - -
16/08:30am - - - - - NW 52 78 28 42 - - -
16/08:25am - - - - - NW 50 78 27 42 - - -
16/08:00am - - - - - WNW 48 57 26 31 - - -
16/07:41am - - - - - WNW 54 65 29 35 - - -
16/07:30am - - - - - NNW 52 65 28 35 - - -
16/07:11am - - - - - NNW 43 54 23 29 - - -
16/07:00am - - - - - N 32 50 17 27 - - -
16/06:43am - - - - - N 28 46 15 25 - - -
16/06:30am - - - - - N 28 37 15 20 - - -
16/06:00am - - - - - N 32 46 17 25 - - -
16/05:30am - - - - - NNE 28 41 15 22 - - -
16/05:00am - - - - - NNE 22 35 12 19 - - -
16/04:30am - - - - - NNE 22 30 12 16 - - -
16/04:00am - - - - - NNE 22 32 12 17 - - -
16/03:30am - - - - - N 22 35 12 19 - - -
16/03:00am - - - - - NNE 19 28 10 15 - - -
16/02:30am - - - - - NNE 22 32 12 17 - - -
16/02:00am - - - - - NNE 19 26 10 14 - - -
16/01:30am - - - - - NNE 19 26 10 14 - - -
16/01:00am - - - - - NNE 19 26 10 14 - - -
16/12:30am - - - - - NNE 15 22 8 12 - - -
16/12:00am - - - - - N 13 19 7 10 - - -
 
Date/Time
WST
Temp
°C
App
Temp
°C
Dew
Point
°C
Rel
Hum
%
Delta-T
°C
Wind Press
QNH
hPa
Press
MSL
hPa
Rain since
9am
mm
Dir  Spd
km/h
Gust
km/h
Spd
kts
Gust
kts
15/11:30pm - - - - - NNW 19 22 10 12 - - -
15/11:00pm - - - - - NW 19 24 10 13 - - -
15/10:30pm - - - - - WNW 22 28 12 15 - - -
15/10:00pm - - - - - NW 13 15 7 8 - - -
15/09:30pm - - - - - WNW 11 15 6 8 - - -
15/09:00pm - - - - - W 15 17 8 9 - - -
15/08:30pm - - - - - WSW 15 19 8 10 - - -
15/08:00pm - - - - - WSW 22 28 12 15 - - -
15/07:30pm - - - - - SW 15 17 8 9 - - -
15/07:00pm - - - - - SSW 19 22 10 12 - - -
15/06:30pm - - - - - SSW 19 24 10 13 - - -
15/06:00pm - - - - - S 19 24 10 13 - - -
15/05:30pm - - - - - S 22 28 12 15 - - -
15/05:00pm - - - - - SSW 22 28 12 15 - - -
15/04:30pm - - - - - SSW 24 28 13 15 - - -
15/04:00pm - - - - - SSW 22 28 12 15 - - -
15/03:30pm - - - - - SW 24 28 13 15 - - -
15/03:00pm - - - - - SW 24 28 13 15 - - -
15/02:30pm - - - - - SW 22 26 12 14 - - -
15/02:00pm - - - - - SW 19 20 10 11 - - -
15/01:30pm - - - - - WSW 17 20 9 11 - - -
15/01:00pm - - - - - WSW 17 22 9 12 - - -
15/12:30pm - - - - - WSW 15 17 8 9 - - -
15/12:00pm - - - - - WSW 20 22 11 12 - - -
15/11:30am - - - - - W 13 17 7 9 - - -
15/11:00am - - - - - W 11 13 6 7 - - -
15/10:30am - - - - - WSW 13 15 7 8 - - -
15/10:00am - - - - - W 15 17 8 9 - - -
15/09:30am - - - - - W 19 20 10 11 - - -
15/09:00am - - - - - W 17 19 9 10 - - -
15/08:30am - - - - - NW 9 15 5 8 - - -
15/08:00am - - - - - NNE 9 11 5 6 - - -
15/07:30am - - - - - NE 9 11 5 6 - - -
15/07:00am - - - - - CALM 0 7 0 4 - - -
15/06:30am - - - - - E 6 9 3 5 - - -
15/06:00am - - - - - SSE 4 9 2 5 - - -
15/05:30am - - - - - WNW 7 13 4 7 - - -
15/05:00am - - - - - W 13 17 7 9 - - -
15/04:30am - - - - - W 13 19 7 10 - - -
15/04:00am - - - - - W 11 15 6 8 - - -
15/03:30am - - - - - NW 11 15 6 8 - - -
15/03:00am - - - - - WNW 6 9 3 5 - - -
15/02:30am - - - - - NNW 9 15 5 8 - - -
15/02:00am - - - - - NW 2 6 1 3 - - -
15/01:30am - - - - - NW 9 11 5 6 - - -

Other Formats:

Comma delimited format used in spreadsheet applications
http://www.bom.gov.au/fwo/IDW60801/IDW60801.94607.axf

JavaScript Object Notation format (JSON) in row-major order
http://www.bom.gov.au/fwo/IDW60801/IDW60801.94607.json